createdAt,value
2022-12-18T00:00:58.379Z,736.0000
2022-12-18T00:02:00.846Z,735.0000
2022-12-18T00:03:01.121Z,733.0000
2022-12-18T00:04:03.551Z,731.0000
2022-12-18T00:05:05.672Z,732.0000
2022-12-18T00:06:07.988Z,730.0000
2022-12-18T00:07:10.393Z,728.0000
2022-12-18T00:08:10.607Z,725.0000
2022-12-18T00:09:12.986Z,723.0000
2022-12-18T00:10:15.577Z,724.0000
2022-12-18T00:11:17.689Z,723.0000
2022-12-18T00:13:20.267Z,726.0000
2022-12-18T00:14:22.642Z,725.0000
2022-12-18T00:15:23.886Z,724.0000
2022-12-18T00:16:25.357Z,723.0000
2022-12-18T00:17:27.593Z,722.0000
2022-12-18T00:18:29.848Z,726.0000
2022-12-18T00:19:30.038Z,722.0000
2022-12-18T00:20:32.325Z,724.0000
2022-12-18T00:21:34.644Z,724.0000
2022-12-18T00:22:36.949Z,723.0000
2022-12-18T00:23:39.729Z,724.0000
2022-12-18T00:24:41.489Z,725.0000
2022-12-18T00:26:57.026Z,705.0000
2022-12-18T00:27:57.261Z,718.0000
2022-12-18T00:28:59.447Z,718.0000
2022-12-18T00:30:01.806Z,717.0000
2022-12-18T00:31:04.127Z,717.0000
2022-12-18T00:32:06.596Z,716.0000
2022-12-18T00:33:06.825Z,714.0000
2022-12-18T00:34:09.036Z,713.0000
2022-12-18T00:35:11.401Z,713.0000
2022-12-18T00:36:13.737Z,712.0000
2022-12-18T00:37:20.081Z,711.0000
2022-12-18T00:38:16.426Z,709.0000
2022-12-18T00:39:18.625Z,712.0000
2022-12-18T00:40:21.020Z,710.0000
2022-12-18T00:41:23.386Z,711.0000
2022-12-18T00:42:23.610Z,712.0000
2022-12-18T00:43:26.106Z,711.0000
2022-12-18T00:44:28.348Z,710.0000
2022-12-18T00:45:30.794Z,712.0000
2022-12-18T00:46:33.085Z,710.0000
2022-12-18T00:47:33.291Z,711.0000
2022-12-18T00:48:35.700Z,711.0000
2022-12-18T00:49:38.047Z,710.0000
2022-12-18T00:50:40.482Z,711.0000
2022-12-18T00:51:40.704Z,713.0000
2022-12-18T00:52:43.116Z,711.0000
2022-12-18T00:53:45.546Z,710.0000
2022-12-18T00:54:47.921Z,706.0000
2022-12-18T00:55:48.114Z,705.0000
2022-12-18T00:56:50.518Z,704.0000
2022-12-18T00:57:52.897Z,704.0000
2022-12-18T00:58:55.324Z,704.0000
2022-12-18T00:59:57.684Z,701.0000
2022-12-18T01:00:57.990Z,697.0000
2022-12-18T01:02:00.489Z,696.0000
2022-12-18T01:03:03.012Z,695.0000
2022-12-18T01:04:03.057Z,696.0000
2022-12-18T01:05:05.447Z,696.0000
2022-12-18T01:06:07.912Z,698.0000
2022-12-18T01:07:08.130Z,695.0000
2022-12-18T01:08:10.512Z,693.0000
2022-12-18T01:09:12.901Z,695.0000
2022-12-18T01:10:15.260Z,694.0000
2022-12-18T01:11:17.647Z,695.0000
2022-12-18T01:12:17.867Z,691.0000
2022-12-18T01:13:20.269Z,691.0000
2022-12-18T01:14:22.691Z,690.0000
2022-12-18T01:15:25.066Z,689.0000
2022-12-18T01:16:25.412Z,690.0000
2022-12-18T01:17:27.729Z,692.0000
2022-12-18T01:18:30.127Z,693.0000
2022-12-18T01:19:30.412Z,694.0000
2022-12-18T01:20:32.802Z,692.0000
2022-12-18T01:21:35.227Z,689.0000
2022-12-18T01:22:37.579Z,692.0000
2022-12-18T01:23:40.529Z,691.0000
2022-12-18T01:24:40.325Z,691.0000
2022-12-18T01:25:42.711Z,689.0000
2022-12-18T01:28:04.785Z,684.0000
2022-12-18T01:29:07.091Z,686.0000
2022-12-18T01:30:07.312Z,690.0000
2022-12-18T01:31:09.617Z,686.0000
2022-12-18T01:32:12.022Z,684.0000
2022-12-18T01:33:14.204Z,682.0000
2022-12-18T01:34:16.526Z,682.0000
2022-12-18T01:35:18.910Z,684.0000
2022-12-18T01:36:19.092Z,681.0000
2022-12-18T01:37:21.454Z,681.0000
2022-12-18T01:38:23.827Z,679.0000
2022-12-18T01:39:26.226Z,677.0000
2022-12-18T01:40:26.508Z,678.0000
2022-12-18T01:41:28.884Z,676.0000
2022-12-18T01:42:31.303Z,680.0000
2022-12-18T01:43:33.703Z,681.0000
2022-12-18T01:44:33.883Z,682.0000
2022-12-18T01:45:36.253Z,682.0000
2022-12-18T01:46:38.547Z,684.0000
2022-12-18T01:47:40.944Z,682.0000
2022-12-18T01:48:43.321Z,681.0000
2022-12-18T01:49:43.557Z,679.0000
2022-12-18T01:50:45.963Z,675.0000
2022-12-18T01:51:48.300Z,675.0000
2022-12-18T01:52:50.616Z,675.0000
2022-12-18T01:53:50.776Z,674.0000
2022-12-18T01:54:53.155Z,671.0000
2022-12-18T01:55:55.709Z,673.0000
2022-12-18T01:56:57.958Z,670.0000
2022-12-18T01:57:58.159Z,670.0000
2022-12-18T01:59:00.521Z,670.0000
2022-12-18T02:00:02.891Z,669.0000
2022-12-18T02:01:05.303Z,670.0000
2022-12-18T02:02:07.797Z,670.0000
2022-12-18T02:03:07.854Z,669.0000
2022-12-18T02:04:10.186Z,671.0000
2022-12-18T02:05:12.500Z,671.0000
2022-12-18T02:06:15.040Z,670.0000
2022-12-18T02:07:17.202Z,671.0000
2022-12-18T02:08:19.557Z,672.0000
2022-12-18T02:09:21.943Z,671.0000
2022-12-18T02:10:24.346Z,673.0000
2022-12-18T02:11:24.609Z,669.0000
2022-12-18T02:12:26.970Z,668.0000
2022-12-18T02:13:29.461Z,670.0000
2022-12-18T02:14:31.722Z,670.0000
2022-12-18T02:15:34.100Z,670.0000
2022-12-18T02:16:35.547Z,670.0000
2022-12-18T02:17:37.631Z,672.0000
2022-12-18T02:18:38.969Z,672.0000
2022-12-18T02:19:41.334Z,670.0000
2022-12-18T02:20:41.549Z,670.0000
2022-12-18T02:21:43.875Z,670.0000
2022-12-18T02:22:46.189Z,670.0000
2022-12-18T02:23:48.567Z,669.0000
2022-12-18T02:24:50.964Z,670.0000
2022-12-18T02:25:51.202Z,668.0000
2022-12-18T02:26:53.625Z,669.0000
2022-12-18T02:27:55.990Z,670.0000
2022-12-18T02:28:58.513Z,671.0000
2022-12-18T02:29:59.181Z,675.0000
2022-12-18T02:31:01.067Z,670.0000
2022-12-18T02:32:03.285Z,672.0000
2022-12-18T02:33:05.614Z,672.0000
2022-12-18T02:34:07.978Z,670.0000
2022-12-18T02:35:08.206Z,668.0000
2022-12-18T02:36:10.588Z,670.0000
2022-12-18T02:37:13.019Z,675.0000
2022-12-18T02:38:15.369Z,673.0000
2022-12-18T02:39:17.749Z,673.0000
2022-12-18T02:40:17.970Z,678.0000
2022-12-18T02:41:20.358Z,676.0000
2022-12-18T02:42:22.777Z,674.0000
2022-12-18T02:43:25.132Z,672.0000
2022-12-18T02:44:25.482Z,670.0000
2022-12-18T02:45:27.844Z,669.0000
2022-12-18T02:46:30.145Z,668.0000
2022-12-18T02:47:32.549Z,667.0000
2022-12-18T02:48:32.773Z,669.0000
2022-12-18T02:49:35.188Z,666.0000
2022-12-18T02:50:37.580Z,668.0000
2022-12-18T02:51:39.990Z,669.0000
2022-12-18T02:52:40.379Z,669.0000
2022-12-18T02:53:42.659Z,669.0000
2022-12-18T02:54:45.012Z,670.0000
2022-12-18T02:55:45.271Z,671.0000
2022-12-18T02:56:47.673Z,665.0000
2022-12-18T02:58:52.762Z,648.0000
2022-12-18T02:59:53.801Z,649.0000
2022-12-18T03:00:55.005Z,651.0000
2022-12-18T03:01:55.297Z,653.0000
2022-12-18T03:02:57.605Z,654.0000
2022-12-18T03:03:59.834Z,656.0000
2022-12-18T03:05:02.163Z,658.0000
2022-12-18T03:06:04.563Z,661.0000
2022-12-18T03:07:04.811Z,662.0000
2022-12-18T03:08:11.037Z,632.0000
2022-12-18T03:09:11.840Z,653.0000
2022-12-18T03:10:14.167Z,649.0000
2022-12-18T03:11:14.408Z,650.0000
2022-12-18T03:12:16.800Z,650.0000
2022-12-18T03:13:19.174Z,646.0000
2022-12-18T03:14:21.551Z,649.0000
2022-12-18T03:15:21.910Z,649.0000
2022-12-18T03:16:24.154Z,646.0000
2022-12-18T03:17:26.457Z,643.0000
2022-12-18T03:18:28.771Z,644.0000
2022-12-18T03:19:31.146Z,642.0000
2022-12-18T03:20:31.336Z,642.0000
2022-12-18T03:21:33.740Z,644.0000
2022-12-18T03:22:36.136Z,645.0000
2022-12-18T03:23:38.744Z,647.0000
2022-12-18T03:24:38.769Z,646.0000
2022-12-18T03:25:41.120Z,644.0000
2022-12-18T03:26:43.493Z,643.0000
2022-12-18T03:27:45.897Z,646.0000
2022-12-18T03:28:46.135Z,646.0000
2022-12-18T03:29:48.557Z,649.0000
2022-12-18T03:30:51.115Z,651.0000
2022-12-18T03:31:53.293Z,648.0000
2022-12-18T03:33:00.091Z,645.0000
2022-12-18T03:33:55.919Z,643.0000
2022-12-18T03:34:58.329Z,642.0000
2022-12-18T03:36:00.722Z,643.0000
2022-12-18T03:37:03.079Z,640.0000
2022-12-18T03:38:03.320Z,641.0000
2022-12-18T03:39:05.723Z,638.0000
2022-12-18T03:40:08.149Z,638.0000
2022-12-18T03:41:10.499Z,640.0000
2022-12-18T03:42:10.750Z,642.0000
2022-12-18T03:43:13.162Z,642.0000
2022-12-18T03:44:15.589Z,645.0000
2022-12-18T03:45:18.011Z,642.0000
2022-12-18T03:46:18.412Z,641.0000
2022-12-18T03:47:20.588Z,640.0000
2022-12-18T03:48:22.921Z,644.0000
2022-12-18T03:49:25.265Z,650.0000
2022-12-18T03:50:25.582Z,651.0000
2022-12-18T03:51:27.822Z,653.0000
2022-12-18T03:52:30.195Z,661.0000
2022-12-18T03:53:32.565Z,664.0000
2022-12-18T03:54:32.779Z,667.0000
2022-12-18T03:55:35.120Z,669.0000
2022-12-18T03:56:37.439Z,671.0000
2022-12-18T03:57:39.760Z,674.0000
2022-12-18T03:58:42.167Z,677.0000
2022-12-18T03:59:44.431Z,679.0000
2022-12-18T04:00:44.669Z,678.0000
2022-12-18T04:01:47.249Z,676.0000
2022-12-18T04:02:49.444Z,676.0000
2022-12-18T04:03:51.707Z,679.0000
2022-12-18T04:04:54.019Z,679.0000
2022-12-18T04:05:54.397Z,680.0000
2022-12-18T04:06:56.652Z,681.0000
2022-12-18T04:07:59.031Z,683.0000
2022-12-18T04:09:01.409Z,681.0000
2022-12-18T04:10:03.804Z,682.0000
2022-12-18T04:11:04.083Z,679.0000
2022-12-18T04:12:06.447Z,678.0000
2022-12-18T04:13:08.855Z,679.0000
2022-12-18T04:14:11.837Z,678.0000
2022-12-18T04:15:11.446Z,675.0000
2022-12-18T04:16:13.859Z,674.0000
2022-12-18T04:17:16.340Z,673.0000
2022-12-18T04:18:18.623Z,677.0000
2022-12-18T04:19:18.889Z,679.0000
2022-12-18T04:20:21.276Z,678.0000
2022-12-18T04:21:23.712Z,678.0000
2022-12-18T04:22:26.066Z,679.0000
2022-12-18T04:23:26.307Z,677.0000
2022-12-18T04:24:28.712Z,677.0000
2022-12-18T04:25:31.112Z,678.0000
2022-12-18T04:26:31.332Z,674.0000
2022-12-18T04:27:33.715Z,675.0000
2022-12-18T04:28:36.117Z,673.0000
2022-12-18T04:29:38.533Z,671.0000
2022-12-18T04:30:38.768Z,671.0000
2022-12-18T04:31:41.155Z,673.0000
2022-12-18T04:32:47.724Z,671.0000
2022-12-18T04:33:45.905Z,671.0000
2022-12-18T04:34:46.175Z,670.0000
2022-12-18T04:35:48.618Z,672.0000
2022-12-18T04:36:51.055Z,674.0000
2022-12-18T04:37:53.375Z,676.0000
2022-12-18T04:38:53.608Z,676.0000
2022-12-18T04:39:56.027Z,679.0000
2022-12-18T04:40:58.450Z,683.0000
2022-12-18T04:42:00.925Z,687.0000
2022-12-18T04:43:01.233Z,689.0000
2022-12-18T04:44:03.606Z,689.0000
2022-12-18T04:45:05.980Z,693.0000
2022-12-18T04:46:08.358Z,693.0000
2022-12-18T04:47:08.516Z,696.0000
2022-12-18T04:48:11.017Z,697.0000
2022-12-18T04:49:13.268Z,698.0000
2022-12-18T04:50:15.669Z,703.0000
2022-12-18T04:51:22.009Z,704.0000
2022-12-18T04:52:18.392Z,710.0000
2022-12-18T04:53:20.730Z,707.0000
2022-12-18T04:54:23.091Z,710.0000
2022-12-18T04:55:25.460Z,711.0000
2022-12-18T04:56:25.682Z,714.0000
2022-12-18T04:57:28.037Z,719.0000
2022-12-18T04:58:30.427Z,719.0000
2022-12-18T04:59:32.807Z,721.0000
2022-12-18T05:00:33.054Z,724.0000
2022-12-18T05:01:35.609Z,727.0000
2022-12-18T05:02:37.983Z,729.0000
2022-12-18T05:03:40.776Z,728.0000
2022-12-18T05:04:40.332Z,727.0000
2022-12-18T05:05:42.657Z,729.0000
2022-12-18T05:06:45.033Z,729.0000
2022-12-18T05:08:43.496Z,726.0000
2022-12-18T05:09:44.601Z,718.0000
2022-12-18T05:10:45.940Z,717.0000
2022-12-18T05:11:46.170Z,719.0000
2022-12-18T05:12:48.574Z,718.0000
2022-12-18T05:13:51.019Z,718.0000
2022-12-18T05:14:51.234Z,715.0000
2022-12-18T05:15:53.675Z,715.0000
2022-12-18T05:17:00.649Z,717.0000
2022-12-18T05:17:58.441Z,716.0000
2022-12-18T05:18:58.856Z,720.0000
2022-12-18T05:20:01.124Z,723.0000
2022-12-18T05:21:03.515Z,730.0000
2022-12-18T05:22:05.894Z,731.0000
2022-12-18T05:23:06.176Z,731.0000
2022-12-18T05:24:08.611Z,727.0000
2022-12-18T05:25:11.005Z,726.0000
2022-12-18T05:26:13.394Z,730.0000
2022-12-18T05:27:13.660Z,731.0000
2022-12-18T05:28:16.085Z,727.0000
2022-12-18T05:29:18.523Z,729.0000
2022-12-18T05:30:18.763Z,731.0000
2022-12-18T05:31:21.212Z,732.0000
2022-12-18T05:32:23.592Z,736.0000
2022-12-18T05:33:25.950Z,737.0000
2022-12-18T05:34:26.460Z,738.0000
2022-12-18T05:35:28.634Z,735.0000
2022-12-18T05:36:31.059Z,737.0000
2022-12-18T05:37:35.863Z,742.0000
2022-12-18T05:38:56.883Z,741.0000
2022-12-18T05:39:57.786Z,741.0000
2022-12-18T05:40:59.975Z,743.0000
2022-12-18T05:42:01.197Z,741.0000
2022-12-18T05:43:02.569Z,747.0000
2022-12-18T05:44:04.940Z,745.0000
2022-12-18T05:45:07.319Z,745.0000
2022-12-18T05:46:09.749Z,748.0000
2022-12-18T05:47:09.879Z,748.0000
2022-12-18T05:48:12.291Z,746.0000
2022-12-18T05:49:14.678Z,749.0000
2022-12-18T05:50:17.216Z,750.0000
2022-12-18T05:51:17.299Z,754.0000
2022-12-18T05:52:19.653Z,752.0000
2022-12-18T05:53:22.007Z,751.0000
2022-12-18T05:54:24.359Z,751.0000
2022-12-18T05:55:26.843Z,750.0000
2022-12-18T05:56:26.940Z,750.0000
2022-12-18T05:57:29.311Z,749.0000
2022-12-18T05:58:31.665Z,750.0000
2022-12-18T05:59:34.030Z,748.0000
2022-12-18T06:00:34.387Z,747.0000
2022-12-18T06:01:36.698Z,743.0000
2022-12-18T06:02:39.099Z,741.0000
2022-12-18T06:03:41.724Z,743.0000
2022-12-18T06:04:41.546Z,743.0000
2022-12-18T06:05:44.052Z,741.0000
2022-12-18T06:06:46.295Z,743.0000
2022-12-18T06:07:48.690Z,738.0000
2022-12-18T06:08:51.068Z,738.0000
2022-12-18T06:09:51.259Z,739.0000
2022-12-18T06:10:53.760Z,742.0000
2022-12-18T06:11:55.981Z,741.0000
2022-12-18T06:12:58.356Z,735.0000
2022-12-18T06:14:00.825Z,729.0000
2022-12-18T06:15:01.026Z,728.0000
2022-12-18T06:16:03.480Z,732.0000
2022-12-18T06:17:05.852Z,729.0000
2022-12-18T06:18:08.276Z,728.0000
2022-12-18T06:19:10.676Z,727.0000
2022-12-18T06:20:13.101Z,729.0000
2022-12-18T06:21:15.634Z,726.0000
2022-12-18T06:22:15.684Z,727.0000
2022-12-18T06:23:18.071Z,729.0000
2022-12-18T06:24:20.491Z,726.0000
2022-12-18T06:25:22.940Z,727.0000
2022-12-18T06:26:27.807Z,727.0000
2022-12-18T06:27:25.641Z,723.0000
2022-12-18T06:28:28.063Z,720.0000
2022-12-18T06:30:43.783Z,707.0000
2022-12-18T06:31:46.208Z,706.0000
2022-12-18T06:32:47.747Z,708.0000
2022-12-18T06:33:48.704Z,707.0000
2022-12-18T06:34:51.066Z,703.0000
2022-12-18T06:35:59.358Z,701.0000
2022-12-18T06:36:53.976Z,700.0000
2022-12-18T06:37:58.321Z,702.0000
2022-12-18T06:38:49.986Z,702.0000
2022-12-18T06:39:50.246Z,702.0000
2022-12-18T06:40:52.602Z,704.0000
2022-12-18T06:41:54.997Z,705.0000
2022-12-18T06:42:57.312Z,710.0000
2022-12-18T06:44:00.267Z,717.0000
2022-12-18T06:44:59.902Z,719.0000
2022-12-18T06:46:02.332Z,724.0000
2022-12-18T06:47:04.676Z,728.0000
2022-12-18T06:48:07.017Z,728.0000
2022-12-18T06:49:09.403Z,739.0000
2022-12-18T06:50:09.681Z,742.0000
2022-12-18T06:51:12.093Z,738.0000
2022-12-18T06:52:14.779Z,741.0000
2022-12-18T06:53:16.934Z,745.0000
2022-12-18T06:54:17.162Z,751.0000
2022-12-18T06:55:19.496Z,752.0000
2022-12-18T06:56:21.865Z,754.0000
2022-12-18T06:57:24.266Z,759.0000
2022-12-18T06:58:24.457Z,779.0000
2022-12-18T06:59:26.823Z,779.0000
2022-12-18T07:00:29.184Z,777.0000
2022-12-18T07:01:31.589Z,782.0000
2022-12-18T07:02:34.057Z,782.0000
2022-12-18T07:03:34.080Z,779.0000
2022-12-18T07:04:36.450Z,782.0000
2022-12-18T07:05:38.809Z,784.0000
2022-12-18T07:06:41.208Z,794.0000
2022-12-18T07:07:43.679Z,796.0000
2022-12-18T07:08:43.729Z,799.0000
2022-12-18T07:09:46.079Z,798.0000
2022-12-18T07:10:51.685Z,796.0000
2022-12-18T07:11:50.832Z,801.0000
2022-12-18T07:12:53.383Z,801.0000
2022-12-18T07:13:53.419Z,809.0000
2022-12-18T07:14:55.822Z,807.0000
2022-12-18T07:15:58.239Z,804.0000
2022-12-18T07:16:58.495Z,805.0000
2022-12-18T07:18:00.908Z,806.0000
2022-12-18T07:19:03.211Z,811.0000
2022-12-18T07:20:05.572Z,812.0000
2022-12-18T07:21:05.820Z,809.0000
2022-12-18T07:22:08.216Z,814.0000
2022-12-18T07:23:10.713Z,811.0000
2022-12-18T07:24:12.870Z,816.0000
2022-12-18T07:25:13.062Z,818.0000
2022-12-18T07:26:15.440Z,814.0000
2022-12-18T07:27:17.839Z,819.0000
2022-12-18T07:28:20.266Z,823.0000
2022-12-18T07:29:22.619Z,816.0000
2022-12-18T07:30:22.865Z,824.0000
2022-12-18T07:31:25.381Z,820.0000
2022-12-18T07:32:27.578Z,832.0000
2022-12-18T07:33:29.905Z,833.0000
2022-12-18T07:34:30.079Z,834.0000
2022-12-18T07:35:32.446Z,835.0000
2022-12-18T07:36:34.832Z,837.0000
2022-12-18T07:37:37.240Z,842.0000
2022-12-18T07:38:39.746Z,838.0000
2022-12-18T07:39:39.839Z,833.0000
2022-12-18T07:40:42.194Z,829.0000
2022-12-18T07:41:46.950Z,828.0000
2022-12-18T07:42:46.897Z,830.0000
2022-12-18T07:43:49.308Z,830.0000
2022-12-18T07:44:49.497Z,830.0000
2022-12-18T07:45:51.958Z,830.0000
2022-12-18T07:46:54.272Z,832.0000
2022-12-18T07:47:56.662Z,831.0000
2022-12-18T07:48:56.950Z,826.0000
2022-12-18T07:49:59.278Z,820.0000
2022-12-18T07:51:01.603Z,822.0000
2022-12-18T07:52:04.015Z,830.0000
2022-12-18T07:53:06.362Z,830.0000
2022-12-18T07:54:06.673Z,830.0000
2022-12-18T07:55:08.871Z,830.0000
2022-12-18T07:56:27.061Z,833.0000
2022-12-18T07:57:27.331Z,834.0000
2022-12-18T07:58:13.909Z,834.0000
2022-12-18T07:59:16.326Z,836.0000
2022-12-18T08:00:18.665Z,842.0000
2022-12-18T08:01:21.336Z,851.0000
2022-12-18T08:02:21.491Z,852.0000
2022-12-18T08:03:23.795Z,860.0000
2022-12-18T08:04:26.366Z,865.0000
2022-12-18T08:05:26.498Z,869.0000
2022-12-18T08:06:28.883Z,878.0000
2022-12-18T08:07:31.251Z,902.0000
2022-12-18T08:08:33.656Z,904.0000
2022-12-18T08:09:34.133Z,921.0000
2022-12-18T08:10:36.272Z,937.0000
2022-12-18T08:11:38.668Z,936.0000
2022-12-18T08:12:41.057Z,952.0000
2022-12-18T08:13:41.694Z,953.0000
2022-12-18T08:14:43.643Z,957.0000
2022-12-18T08:15:45.977Z,960.0000
2022-12-18T08:16:48.419Z,960.0000
2022-12-18T08:17:50.756Z,967.0000
2022-12-18T08:18:51.009Z,967.0000
2022-12-18T08:19:53.441Z,978.0000
2022-12-18T08:20:55.794Z,986.0000
2022-12-18T08:21:58.149Z,992.0000
2022-12-18T08:22:58.423Z,1000.0000
2022-12-18T08:24:00.825Z,1005.0000
2022-12-18T08:25:03.382Z,1000.0000
2022-12-18T08:26:05.583Z,1027.0000
2022-12-18T08:27:28.337Z,1037.0000
2022-12-18T08:28:08.204Z,1027.0000
2022-12-18T08:29:10.621Z,1031.0000
2022-12-18T08:30:12.980Z,1041.0000
2022-12-18T08:31:13.252Z,1048.0000
2022-12-18T08:31:17.622Z,1055.0000
2022-12-18T08:32:18.790Z,1040.0000
2022-12-18T08:33:20.112Z,1047.0000
2022-12-18T08:34:22.438Z,1062.0000
2022-12-18T08:35:24.806Z,1049.0000
2022-12-18T08:36:27.114Z,1074.0000
2022-12-18T08:37:29.398Z,1076.0000
2022-12-18T08:38:31.793Z,1089.0000
2022-12-18T08:39:32.006Z,1082.0000
2022-12-18T08:40:34.568Z,1091.0000
2022-12-18T08:41:36.736Z,1084.0000
2022-12-18T08:42:39.115Z,1092.0000
2022-12-18T08:43:39.835Z,1081.0000
2022-12-18T08:44:41.727Z,1082.0000
2022-12-18T08:45:44.253Z,1096.0000
2022-12-18T08:46:46.575Z,1103.0000
2022-12-18T08:47:46.832Z,1100.0000
2022-12-18T08:48:49.257Z,1103.0000
2022-12-18T08:49:51.667Z,1118.0000
2022-12-18T08:50:54.096Z,1117.0000
2022-12-18T08:51:54.309Z,1121.0000
2022-12-18T08:52:56.710Z,1114.0000
2022-12-18T08:53:59.106Z,1124.0000
2022-12-18T08:55:01.537Z,1108.0000
2022-12-18T08:56:01.920Z,1127.0000
2022-12-18T08:57:04.162Z,1122.0000
2022-12-18T08:58:06.607Z,1123.0000
2022-12-18T08:59:10.463Z,1113.0000
2022-12-18T09:00:09.177Z,1117.0000
2022-12-18T09:01:11.645Z,1104.0000
2022-12-18T09:03:42.541Z,1100.0000
2022-12-18T09:04:45.632Z,1098.0000
2022-12-18T09:05:44.320Z,1083.0000
2022-12-18T09:06:46.725Z,1088.0000
2022-12-18T09:07:48.895Z,1099.0000
2022-12-18T09:08:51.178Z,1107.0000
2022-12-18T09:09:53.482Z,1115.0000
2022-12-18T09:10:55.773Z,1106.0000
2022-12-18T09:11:56.092Z,1136.0000
2022-12-18T09:12:58.216Z,1127.0000
2022-12-18T09:14:00.510Z,1140.0000
2022-12-18T09:15:02.805Z,1120.0000
2022-12-18T09:16:05.102Z,1144.0000
2022-12-18T09:17:07.455Z,1144.0000
2022-12-18T09:18:07.557Z,1155.0000
2022-12-18T09:19:09.842Z,1144.0000
2022-12-18T09:20:12.167Z,1149.0000
2022-12-18T09:21:14.455Z,1153.0000
2022-12-18T09:22:16.897Z,1147.0000
2022-12-18T09:23:19.115Z,1139.0000
2022-12-18T09:24:21.473Z,1144.0000
2022-12-18T09:25:21.659Z,1157.0000
2022-12-18T09:26:24.014Z,1145.0000
2022-12-18T09:27:26.574Z,1148.0000
2022-12-18T09:28:28.618Z,1170.0000
2022-12-18T09:29:30.959Z,1161.0000
2022-12-18T09:30:31.272Z,1176.0000
2022-12-18T09:31:33.524Z,1152.0000
2022-12-18T09:32:35.904Z,1197.0000
2022-12-18T09:33:38.207Z,1193.0000
2022-12-18T09:34:40.569Z,1187.0000
2022-12-18T09:35:40.755Z,1199.0000
2022-12-18T09:36:43.115Z,1192.0000
2022-12-18T09:37:45.500Z,1195.0000
2022-12-18T09:38:47.796Z,1205.0000
2022-12-18T09:39:50.142Z,1220.0000
2022-12-18T09:40:52.470Z,1211.0000
2022-12-18T09:41:54.878Z,1202.0000
2022-12-18T09:42:57.414Z,1222.0000
2022-12-18T09:43:59.488Z,1169.0000
2022-12-18T09:44:59.804Z,1147.0000
2022-12-18T09:46:02.096Z,1174.0000
2022-12-18T09:47:04.471Z,1184.0000
2022-12-18T09:48:06.932Z,1199.0000
2022-12-18T09:49:07.174Z,1206.0000
2022-12-18T09:50:14.264Z,1209.0000
2022-12-18T09:51:12.030Z,1209.0000
2022-12-18T09:52:14.451Z,1214.0000
2022-12-18T09:53:14.750Z,1207.0000
2022-12-18T09:54:17.153Z,1208.0000
2022-12-18T09:55:19.490Z,1212.0000
2022-12-18T09:56:21.820Z,1214.0000
2022-12-18T09:57:22.065Z,1228.0000
2022-12-18T09:58:24.560Z,1226.0000
2022-12-18T09:59:26.799Z,1221.0000
2022-12-18T10:00:29.182Z,1226.0000
2022-12-18T10:01:41.587Z,1236.0000
2022-12-18T10:02:31.997Z,1255.0000
2022-12-18T10:03:34.252Z,1257.0000
2022-12-18T10:04:36.761Z,1257.0000
2022-12-18T10:05:39.004Z,1262.0000
2022-12-18T10:06:39.282Z,1282.0000
2022-12-18T10:07:41.652Z,1282.0000
2022-12-18T10:08:44.303Z,1284.0000
2022-12-18T10:09:46.411Z,1282.0000
2022-12-18T10:10:46.665Z,1277.0000
2022-12-18T10:11:49.025Z,1285.0000
2022-12-18T10:12:51.373Z,1296.0000
2022-12-18T10:13:53.983Z,1299.0000
2022-12-18T10:14:56.145Z,1311.0000
2022-12-18T10:15:56.431Z,1297.0000
2022-12-18T10:16:58.818Z,1312.0000
2022-12-18T10:17:59.340Z,1309.0000
2022-12-18T10:19:01.509Z,1302.0000
2022-12-18T10:20:03.833Z,1329.0000
2022-12-18T10:21:06.177Z,1308.0000
2022-12-18T10:22:06.419Z,1302.0000
2022-12-18T10:23:08.827Z,1296.0000
2022-12-18T10:24:11.252Z,1281.0000
2022-12-18T10:25:13.602Z,1299.0000
2022-12-18T10:26:13.837Z,1307.0000
2022-12-18T10:27:16.236Z,1276.0000
2022-12-18T10:28:18.628Z,1267.0000
2022-12-18T10:29:21.177Z,1274.0000
2022-12-18T10:30:23.405Z,1284.0000
2022-12-18T10:31:24.823Z,1291.0000
2022-12-18T10:32:26.068Z,1269.0000
2022-12-18T10:33:28.479Z,1265.0000
2022-12-18T10:34:30.914Z,1282.0000
2022-12-18T10:35:31.133Z,1277.0000
2022-12-18T10:36:33.527Z,1275.0000
2022-12-18T10:37:35.938Z,1277.0000
2022-12-18T10:38:38.693Z,1283.0000
2022-12-18T10:39:38.623Z,1282.0000
2022-12-18T10:40:40.989Z,1293.0000
2022-12-18T10:41:43.417Z,1290.0000
2022-12-18T10:42:43.682Z,1283.0000
2022-12-18T10:43:46.101Z,1298.0000
2022-12-18T10:44:48.765Z,1313.0000
2022-12-18T10:45:50.929Z,1309.0000
2022-12-18T10:46:51.242Z,1297.0000
2022-12-18T10:47:53.592Z,1320.0000
2022-12-18T10:48:55.958Z,1312.0000
2022-12-18T10:49:58.384Z,1317.0000
2022-12-18T10:51:14.121Z,1301.0000
2022-12-18T10:52:00.922Z,1320.0000
2022-12-18T10:53:03.288Z,1303.0000
2022-12-18T10:54:06.397Z,1303.0000
2022-12-18T10:55:08.039Z,1305.0000
2022-12-18T10:56:08.225Z,1297.0000
2022-12-18T10:57:10.625Z,1294.0000
2022-12-18T10:58:12.960Z,1306.0000
2022-12-18T10:59:15.291Z,1311.0000
2022-12-18T11:00:15.698Z,1298.0000
2022-12-18T11:01:18.154Z,1302.0000
2022-12-18T11:02:20.770Z,1295.0000
2022-12-18T11:03:22.808Z,1306.0000
2022-12-18T11:04:23.024Z,1299.0000
2022-12-18T11:05:25.451Z,1299.0000
2022-12-18T11:06:27.839Z,1297.0000
2022-12-18T11:07:30.251Z,1294.0000
2022-12-18T11:08:30.519Z,1294.0000
2022-12-18T11:09:32.911Z,1295.0000
2022-12-18T11:10:35.367Z,1296.0000
2022-12-18T11:11:37.743Z,1298.0000
2022-12-18T11:12:38.001Z,1299.0000
2022-12-18T11:13:40.376Z,1301.0000
2022-12-18T11:14:46.849Z,1304.0000
2022-12-18T11:15:45.394Z,1305.0000
2022-12-18T11:17:03.166Z,1324.0000
2022-12-18T11:17:47.817Z,1328.0000
2022-12-18T11:18:50.216Z,1328.0000
2022-12-18T11:19:52.647Z,1324.0000
2022-12-18T11:20:56.972Z,1315.0000
2022-12-18T11:21:55.185Z,1251.0000
2022-12-18T11:22:57.585Z,1268.0000
2022-12-18T11:23:59.972Z,1264.0000
2022-12-18T11:26:02.653Z,1235.0000
2022-12-18T11:27:05.035Z,1241.0000
2022-12-18T11:28:07.432Z,1279.0000
2022-12-18T11:29:07.717Z,1278.0000
2022-12-18T11:30:10.144Z,1278.0000
2022-12-18T11:31:12.908Z,1286.0000
2022-12-18T11:32:14.971Z,1282.0000
2022-12-18T11:33:15.209Z,1288.0000
2022-12-18T11:34:29.173Z,1287.0000
2022-12-18T11:35:19.964Z,1289.0000
2022-12-18T11:36:22.327Z,1295.0000
2022-12-18T11:37:24.593Z,1297.0000
2022-12-18T11:38:26.911Z,1304.0000
2022-12-18T11:39:27.115Z,1303.0000
2022-12-18T11:40:29.435Z,1301.0000
2022-12-18T11:41:31.940Z,1303.0000
2022-12-18T11:42:34.137Z,1301.0000
2022-12-18T11:43:36.511Z,1298.0000
2022-12-18T11:44:36.678Z,1289.0000
2022-12-18T11:45:39.042Z,1276.0000
2022-12-18T11:46:41.622Z,1270.0000
2022-12-18T11:47:43.755Z,1275.0000
2022-12-18T11:48:46.116Z,1280.0000
2022-12-18T11:49:46.320Z,1293.0000
2022-12-18T11:50:48.663Z,1299.0000
2022-12-18T11:51:51.040Z,1303.0000
2022-12-18T11:52:58.205Z,1297.0000
2022-12-18T11:53:55.644Z,1291.0000
2022-12-18T11:54:57.979Z,1290.0000
2022-12-18T11:55:58.121Z,1289.0000
2022-12-18T11:57:00.445Z,1285.0000
2022-12-18T11:58:02.771Z,1292.0000
2022-12-18T11:59:05.082Z,1294.0000
2022-12-18T12:00:07.397Z,1287.0000
2022-12-18T12:01:07.572Z,1295.0000
2022-12-18T12:02:10.236Z,1287.0000
2022-12-18T12:03:12.330Z,1273.0000
2022-12-18T12:04:14.583Z,1254.0000
2022-12-18T12:05:16.872Z,1259.0000
2022-12-18T12:06:19.188Z,1281.0000
2022-12-18T12:07:19.392Z,1281.0000
2022-12-18T12:08:21.700Z,1281.0000